Time;durP1;ratioP1;P1;durP2;ratioP2;P2;SDS_P1;SDS_P2;PMS_P1;PMS_P2;Temp;Humidity;BMP_temperature;BMP_pressure;BME280_temperature;BME280_humidity;BME280_pressure;Samples;Min_cycle;Max_cycle;Signal;HPM_P1;HPM_P2
2023/04/09 00:00:02;;;;;;;13.73;11.95;;;;;;;5.10;70.62;99757.03;5086043;28;20036;-73
2023/04/09 00:02:29;;;;;;;14.45;12.18;;;;;;;4.55;70.60;99663.91;5085370;28;20044;-72
2023/04/09 00:04:57;;;;;;;14.93;11.93;;;;;;;4.10;70.60;99592.44;5085653;28;20040;-72
2023/04/09 00:07:23;;;;;;;12.82;11.45;;;;;;;5.11;70.84;99756.13;5085376;28;20223;-72
2023/04/09 00:09:50;;;;;;;14.15;11.60;;;;;;;5.10;70.78;99762.28;5085304;28;20051;-72
2023/04/09 00:12:17;;;;;;;15.23;12.38;;;;;;;5.10;70.84;99759.66;5085827;28;20048;-73
2023/04/09 00:14:43;;;;;;;13.63;11.80;;;;;;;5.09;70.53;99758.81;5085420;28;20103;-72
2023/04/09 00:17:10;;;;;;;13.25;11.85;;;;;;;5.10;70.69;99765.78;5085700;28;20188;-72
2023/04/09 00:19:37;;;;;;;12.75;11.43;;;;;;;5.11;70.71;99758.75;5085800;28;20041;-72
2023/04/09 00:22:05;;;;;;;15.48;13.20;;;;;;;5.10;70.96;99763.16;5085557;28;20075;-72
2023/04/09 00:24:31;;;;;;;14.18;12.30;;;;;;;5.10;71.19;99754.41;5085452;28;20044;-72
2023/04/09 00:26:58;;;;;;;15.07;11.73;;;;;;;5.09;70.97;99760.56;5085722;28;20044;-73
2023/04/09 00:29:26;;;;;;;14.07;12.38;;;;;;;5.08;71.21;99762.31;5085100;28;20048;-73
2023/04/09 00:31:52;;;;;;;14.13;11.40;;;;;;;5.08;71.43;99761.47;5085060;28;20060;-72
2023/04/09 00:34:19;;;;;;;12.68;10.68;;;;;;;5.08;71.24;99756.22;5085615;28;20045;-73
2023/04/09 00:36:46;;;;;;;14.38;11.15;;;;;;;5.08;71.45;99756.22;5084972;28;20039;-73
2023/04/09 00:39:14;;;;;;;13.40;11.25;;;;;;;5.08;71.35;99756.22;5085388;28;20052;-71
2023/04/09 00:41:40;;;;;;;13.77;11.00;;;;;;;5.08;71.49;99762.31;5084795;28;20057;-72
2023/04/09 00:44:07;;;;;;;14.65;12.27;;;;;;;5.08;71.59;99757.06;5085007;28;20082;-72
2023/04/09 00:46:34;;;;;;;12.88;11.18;;;;;;;5.08;71.68;99757.06;5084777;28;20058;-72
2023/04/09 00:49:00;;;;;;;11.52;10.20;;;;;;;4.62;71.54;99683.84;5085447;28;20048;-73
2023/04/09 00:51:28;;;;;;;14.52;11.48;;;;;;;5.08;71.67;99761.47;5085555;28;20041;-73
2023/04/09 00:53:55;;;;;;;12.25;9.75;;;;;;;5.06;71.91;99755.38;5085501;28;20070;-72
2023/04/09 00:56:24;;;;;;;11.55;10.35;;;;;;;4.81;71.84;99721.84;5084848;28;20044;-72
2023/04/09 00:58:51;;;;;;;11.95;10.07;;;;;;;5.04;71.79;99755.44;5084810;28;20040;-71
2023/04/09 01:01:17;;;;;;;11.50;9.27;;;;;;;5.05;71.53;99757.16;5084829;28;20192;-73
2023/04/09 01:03:44;;;;;;;10.45;9.15;;;;;;;5.05;71.39;99758.91;5086200;28;20060;-72
2023/04/09 01:06:17;;;;;;;12.75;11.27;;;;;;;5.04;71.67;99751.94;5088482;28;20189;-71
2023/04/09 01:08:55;;;;;;;9.38;8.38;;;;;;;5.04;71.66;99757.19;5087781;28;20119;-72
2023/04/09 01:11:34;;;;;;;10.60;9.20;;;;;;;4.79;72.36;99733.31;5088563;28;20052;-72
2023/04/09 01:14:06;;;;;;;11.95;10.05;;;;;;;5.01;72.30;99755.50;5088282;28;20094;-72
2023/04/09 01:16:37;;;;;;;11.35;9.52;;;;;;;5.01;72.47;99752.03;5088397;28;20048;-72
2023/04/09 01:19:12;;;;;;;11.05;9.75;;;;;;;3.91;72.69;99572.81;5088456;28;20115;-72
2023/04/09 01:21:40;;;;;;;9.38;8.02;;;;;;;4.99;72.22;99754.69;5088140;28;20102;-72
2023/04/09 01:24:21;;;;;;;11.80;9.13;;;;;;;5.00;72.84;99763.44;5088125;28;20047;-72
2023/04/09 01:27:00;;;;;;;10.68;8.95;;;;;;;4.98;72.86;99760.84;5088253;28;20238;-72
2023/04/09 01:29:31;;;;;;;10.75;8.60;;;;;;;4.96;72.54;99761.78;5088541;28;20121;-71
2023/04/09 01:31:59;;;;;;;11.48;9.82;;;;;;;4.07;71.93;99601.25;5088215;28;20131;-72
2023/04/09 01:34:27;;;;;;;11.05;9.70;;;;;;;4.95;71.93;99745.16;5088452;28;20116;-72
2023/04/09 01:36:57;;;;;;;10.45;9.13;;;;;;;4.93;72.06;99753.97;5088000;28;20036;-72
2023/04/09 01:39:25;;;;;;;9.88;8.70;;;;;;;4.95;72.01;99752.19;5088060;28;20297;-72
2023/04/09 01:41:52;;;;;;;10.48;8.90;;;;;;;4.96;72.06;99752.16;5087919;28;20067;-72
2023/04/09 01:44:20;;;;;;;11.18;8.98;;;;;;;4.95;72.20;99754.81;5087691;28;20052;-72
2023/04/09 01:46:50;;;;;;;10.30;9.13;;;;;;;4.93;72.12;99746.09;5087625;28;20078;-73
2023/04/09 01:49:18;;;;;;;10.48;8.70;;;;;;;4.51;71.99;99687.66;5088177;28;20044;-72
2023/04/09 01:51:44;;;;;;;10.65;9.15;;;;;;;4.64;71.93;99710.91;5088100;28;20231;-72
2023/04/09 01:54:11;;;;;;;10.38;8.95;;;;;;;4.91;71.98;99758.41;5087512;28;20120;-72
2023/04/09 01:56:42;;;;;;;10.77;9.07;;;;;;;4.73;72.46;99721.19;5088024;28;20044;-72
2023/04/09 01:59:09;;;;;;;11.15;9.07;;;;;;;4.90;72.46;99749.69;5087749;28;20234;-71
2023/04/09 02:01:41;;;;;;;11.15;9.98;;;;;;;4.90;72.64;99760.19;5087591;28;20079;-71
2023/04/09 02:04:16;;;;;;;10.93;8.25;;;;;;;4.89;72.63;99753.19;5087569;28;20060;-71
2023/04/09 02:06:47;;;;;;;;;;;;;;;4.85;74.14;99754.16;5088197;28;20119;-71
2023/04/09 02:09:16;;;;;;;9.73;8.07;;;;;;;4.63;72.57;99721.47;5087832;28;19917;-72
2023/04/09 02:11:46;;;;;;;10.38;8.98;;;;;;;4.86;72.37;99757.63;5087221;28;20052;-71
2023/04/09 02:14:13;;;;;;;10.98;9.48;;;;;;;4.86;72.21;99758.50;5086773;28;20047;-72
2023/04/09 02:16:41;;;;;;;11.82;9.80;;;;;;;4.85;72.18;99754.16;5087315;28;20037;-71
2023/04/09 02:19:08;;;;;;;12.50;10.75;;;;;;;4.86;72.03;99755.88;5087846;28;20052;-72
2023/04/09 02:21:36;;;;;;;11.57;10.38;;;;;;;4.87;72.14;99749.72;5087258;28;20036;-71
2023/04/09 02:24:02;;;;;;;12.00;10.02;;;;;;;4.87;71.91;99762.84;5087243;28;20045;-71
2023/04/09 02:26:29;;;;;;;12.02;9.07;;;;;;;4.87;71.92;99748.84;5086910;28;20040;-71
2023/04/09 02:28:55;;;;;;;11.05;9.32;;;;;;;4.85;71.93;99748.91;5086898;28;20051;-70
2023/04/09 02:31:22;;;;;;;11.98;8.75;;;;;;;4.82;71.89;99751.59;5086907;28;20090;-71
2023/04/09 02:33:49;;;;;;;11.85;9.85;;;;;;;4.71;71.91;99728.25;5087329;28;20056;-71
2023/04/09 02:36:15;;;;;;;10.82;9.73;;;;;;;4.81;71.72;99745.50;5086649;28;20037;-71
2023/04/09 02:38:43;;;;;;;11.02;9.90;;;;;;;4.77;71.82;99746.47;5087239;28;20036;-72
2023/04/09 02:41:10;;;;;;;12.05;10.55;;;;;;;4.76;71.81;99738.63;5086915;28;20055;-71
2023/04/09 02:43:37;;;;;;;11.82;10.13;;;;;;;4.74;71.87;99746.53;5086357;28;20051;-71
2023/04/09 02:46:03;;;;;;;11.75;10.30;;;;;;;4.71;71.76;99745.75;5087163;28;20037;-72
2023/04/09 02:48:30;;;;;;;12.68;10.88;;;;;;;4.70;71.81;99744.91;5086774;28;20055;-71
2023/04/09 02:50:57;;;;;;;12.82;10.10;;;;;;;4.28;71.88;99702.19;5086417;28;20040;-71
2023/04/09 02:53:24;;;;;;;11.45;9.98;;;;;;;4.64;72.02;99747.69;5086665;28;20033;-71
2023/04/09 02:55:52;;;;;;;11.88;10.43;;;;;;;4.38;72.18;99711.56;5086764;28;20040;-71
2023/04/09 02:58:18;;;;;;;12.38;10.98;;;;;;;4.66;72.18;99753.75;5086557;28;20048;-71
2023/04/09 03:00:45;;;;;;;13.52;11.60;;;;;;;4.66;72.32;99747.63;5086463;28;20044;-72
2023/04/09 03:03:12;;;;;;;12.40;10.63;;;;;;;4.66;72.38;99745.00;5086472;28;20042;-72
2023/04/09 03:05:38;;;;;;;12.95;11.55;;;;;;;4.65;72.48;99752.03;5086689;28;20040;-72
2023/04/09 03:08:05;;;;;;;12.35;10.38;;;;;;;4.27;72.50;99691.75;5086063;28;20041;-72
2023/04/09 03:10:32;;;;;;;12.40;11.05;;;;;;;4.63;72.58;99756.44;5086639;28;20097;-72
2023/04/09 03:13:00;;;;;;;12.43;11.13;;;;;;;4.64;72.64;99750.31;5086632;28;20040;-72
2023/04/09 03:15:26;;;;;;;13.00;10.73;;;;;;;4.65;72.33;99748.53;5085968;28;20068;-72
2023/04/09 03:17:53;;;;;;;12.10;10.38;;;;;;;4.64;72.28;99752.94;5085929;28;20255;-72
2023/04/09 03:20:20;;;;;;;12.23;10.23;;;;;;;4.47;72.28;99721.84;5086211;28;20044;-71
2023/04/09 03:22:46;;;;;;;14.15;12.18;;;;;;;4.62;72.17;99744.22;5086285;28;20051;-72
2023/04/09 03:25:13;;;;;;;13.60;11.55;;;;;;;4.65;72.14;99752.03;5086130;28;20300;-71
2023/04/09 03:27:39;;;;;;;12.57;10.75;;;;;;;4.64;72.16;99750.31;5085678;28;20040;-72
2023/04/09 03:30:08;;;;;;;12.50;10.65;;;;;;;4.63;71.94;99745.94;5086327;28;20044;-72
2023/04/09 03:32:35;;;;;;;13.07;11.00;;;;;;;4.64;72.02;99750.31;5086024;28;20181;-71
2023/04/09 03:35:02;;;;;;;13.27;11.57;;;;;;;4.64;72.07;99749.44;5085846;28;20208;-72
2023/04/09 03:37:28;;;;;;;12.75;10.93;;;;;;;4.64;72.25;99747.69;5085614;28;20044;-72
2023/04/09 03:39:55;;;;;;;12.40;11.07;;;;;;;4.65;72.07;99756.41;5085661;28;20095;-72
2023/04/09 03:42:22;;;;;;;12.75;10.38;;;;;;;4.63;72.24;99748.56;5085744;28;20066;-71
2023/04/09 03:44:48;;;;;;;12.90;10.82;;;;;;;4.63;72.33;99758.22;5085779;28;20343;-72
2023/04/09 03:47:16;;;;;;;14.27;11.55;;;;;;;4.43;72.11;99722.81;5085591;28;20235;-71
2023/04/09 03:49:43;;;;;;;13.48;11.35;;;;;;;4.62;72.16;99759.13;5085863;28;20044;-72
2023/04/09 03:52:10;;;;;;;13.63;11.23;;;;;;;4.37;72.04;99717.72;5085801;28;20044;-72
2023/04/09 03:54:36;;;;;;;13.18;11.77;;;;;;;4.62;72.26;99764.38;5085720;28;20052;-72
2023/04/09 03:57:03;;;;;;;13.10;10.32;;;;;;;4.60;72.37;99764.41;5085950;28;20047;-72
2023/04/09 03:59:30;;;;;;;12.30;10.73;;;;;;;4.62;72.36;99764.38;5086027;28;20293;-72
2023/04/09 04:01:56;;;;;;;12.77;10.85;;;;;;;4.61;72.72;99766.13;5085755;28;20048;-72
2023/04/09 04:04:24;;;;;;;12.57;11.18;;;;;;;4.62;72.71;99759.97;5085548;28;20041;-72
2023/04/09 04:06:51;;;;;;;12.55;11.23;;;;;;;4.61;72.83;99763.50;5085930;28;20050;-71
2023/04/09 04:09:18;;;;;;;13.75;11.60;;;;;;;4.63;73.11;99761.69;5085640;28;20053;-71
2023/04/09 04:11:44;;;;;;;13.27;10.93;;;;;;;4.63;73.10;99769.56;5085887;28;20094;-72
2023/04/09 04:14:11;;;;;;;15.00;11.95;;;;;;;4.63;73.24;99772.19;5085568;28;20315;-72
2023/04/09 04:16:40;;;;;;;13.02;11.63;;;;;;;4.64;72.93;99773.94;5085463;28;20037;-72
2023/04/09 04:19:06;;;;;;;13.55;11.38;;;;;;;4.60;72.96;99766.16;5085813;28;20044;-72
2023/04/09 04:21:34;;;;;;;14.10;11.70;;;;;;;4.44;73.24;99747.31;5085507;28;20048;-71
2023/04/09 04:24:01;;;;;;;15.30;12.07;;;;;;;4.64;73.21;99784.44;5085177;28;20239;-72
2023/04/09 04:26:28;;;;;;;14.20;11.07;;;;;;;4.42;73.14;99741.22;5085424;28;20036;-71
2023/04/09 04:28:54;;;;;;;12.95;10.73;;;;;;;4.67;73.38;99783.50;5085236;28;20053;-71
2023/04/09 04:31:21;;;;;;;13.95;12.10;;;;;;;4.66;73.22;99782.63;5085712;28;20055;-71
2023/04/09 04:33:47;;;;;;;13.85;11.35;;;;;;;4.67;73.50;99784.34;5085111;28;20044;-71
2023/04/09 04:36:14;;;;;;;14.32;12.40;;;;;;;4.68;73.33;99786.09;5084409;28;20062;-72
2023/04/09 04:38:42;;;;;;;13.55;11.18;;;;;;;4.68;73.39;99786.09;5088354;28;20204;-72
2023/04/09 04:41:11;;;;;;;13.50;11.30;;;;;;;3.81;73.04;99635.09;5088902;28;20050;-71
2023/04/09 04:43:37;;;;;;;13.13;11.63;;;;;;;4.72;72.92;99790.34;5088661;28;20053;-71
2023/04/09 04:46:05;;;;;;;15.02;11.55;;;;;;;4.73;72.99;99789.47;5088860;28;20082;-72
2023/04/09 04:48:31;;;;;;;14.20;12.48;;;;;;;4.60;72.72;99768.78;5089046;28;20204;-71
2023/04/09 04:50:59;;;;;;;14.43;12.30;;;;;;;4.50;72.75;99752.41;5088990;28;20232;-72
2023/04/09 04:53:26;;;;;;;13.43;10.52;;;;;;;4.36;72.61;99729.13;5088779;28;20040;-72
2023/04/09 04:55:54;;;;;;;11.85;10.65;;;;;;;4.70;72.68;99800.03;5089147;28;20193;-72
2023/04/09 04:58:21;;;;;;;12.68;10.48;;;;;;;4.70;72.63;99796.53;5088540;28;20293;-71
2023/04/09 05:00:48;;;;;;;11.93;10.52;;;;;;;4.73;72.61;99804.34;5088563;28;20052;-71
2023/04/09 05:03:15;;;;;;;13.18;11.45;;;;;;;4.74;72.64;99798.19;5089068;28;20048;-72
2023/04/09 05:05:41;;;;;;;13.13;11.23;;;;;;;4.74;72.68;99801.69;5088673;28;20110;-71
2023/04/09 05:08:08;;;;;;;14.60;11.90;;;;;;;4.74;72.68;99801.69;5088644;28;20098;-71
2023/04/09 05:10:35;;;;;;;13.80;12.25;;;;;;;4.75;72.80;99808.66;5088921;28;20040;-71
2023/04/09 05:13:03;;;;;;;13.93;11.45;;;;;;;4.74;72.66;99806.94;5088338;28;20044;-71
2023/04/09 05:15:29;;;;;;;14.27;11.77;;;;;;;4.76;72.71;99804.28;5089353;28;20040;-71
2023/04/09 05:17:56;;;;;;;12.63;10.95;;;;;;;4.74;72.61;99804.31;5088725;28;20052;-71
2023/04/09 05:20:23;;;;;;;14.75;12.27;;;;;;;4.67;72.80;99800.09;5088718;28;20037;-71
2023/04/09 05:22:50;;;;;;;15.88;13.30;;;;;;;4.76;72.81;99812.16;5088083;28;20048;-71
2023/04/09 05:25:17;;;;;;;13.60;11.65;;;;;;;4.77;72.79;99820.00;5088100;28;20063;-71
2023/04/09 05:27:44;;;;;;;16.02;12.88;;;;;;;4.80;72.64;99816.44;5088345;28;20037;-72
2023/04/09 05:30:13;;;;;;;14.50;12.00;;;;;;;4.79;72.86;99812.94;5088220;28;20063;-71
2023/04/09 05:32:40;;;;;;;13.50;12.02;;;;;;;4.80;72.71;99813.81;5087985;28;20041;-72
2023/04/09 05:35:07;;;;;;;15.77;13.93;;;;;;;4.77;72.83;99808.63;5087897;28;20036;-72
2023/04/09 05:37:33;;;;;;;14.80;12.80;;;;;;;4.82;72.84;99806.75;5088113;28;20311;-72
2023/04/09 05:40:00;;;;;;;14.00;12.43;;;;;;;4.82;72.85;99812.88;5087824;28;20055;-72
2023/04/09 05:42:27;;;;;;;14.98;12.25;;;;;;;4.85;72.79;99817.19;5087900;28;20056;-72
2023/04/09 05:44:54;;;;;;;14.55;12.88;;;;;;;4.87;72.94;99823.25;5087849;28;20376;-72
2023/04/09 05:47:22;;;;;;;14.32;12.73;;;;;;;3.76;72.69;99642.22;5088317;28;20043;-72
2023/04/09 05:49:49;;;;;;;13.98;12.10;;;;;;;4.49;72.86;99769.06;5086878;28;20036;-71
2023/04/09 05:52:16;;;;;;;13.88;11.77;;;;;;;4.88;72.80;99832.88;5088159;28;20060;-71
2023/04/09 05:54:42;;;;;;;13.32;11.55;;;;;;;4.89;72.68;99833.72;5088128;28;20044;-72
2023/04/09 05:57:09;;;;;;;13.65;12.13;;;;;;;4.90;72.65;99840.75;5087733;28;20273;-72
2023/04/09 05:59:36;;;;;;;14.98;12.50;;;;;;;4.91;72.51;99835.44;5087513;28;20045;-72
2023/04/09 06:02:02;;;;;;;15.43;12.80;;;;;;;4.93;72.58;99828.38;5087997;28;20108;-72
2023/04/09 06:04:30;;;;;;;14.70;12.93;;;;;;;4.92;72.58;99834.53;5087929;28;20351;-72
2023/04/09 06:06:59;;;;;;;14.93;12.02;;;;;;;4.94;72.69;99829.25;5087853;28;20048;-72
2023/04/09 06:09:26;;;;;;;16.92;13.18;;;;;;;4.55;72.53;99766.28;5087850;28;20040;-72
2023/04/09 06:11:52;;;;;;;14.95;12.95;;;;;;;4.98;72.52;99839.66;5087194;28;20064;-71
2023/04/09 06:14:19;;;;;;;15.77;13.88;;;;;;;4.99;72.55;99836.13;5087178;28;20251;-72
2023/04/09 06:16:45;;;;;;;14.02;12.50;;;;;;;5.03;72.76;99842.16;5087327;28;20040;-72
2023/04/09 06:19:12;;;;;;;15.02;12.02;;;;;;;4.81;72.57;99805.03;5087533;28;20040;-72
2023/04/09 06:21:41;;;;;;;16.40;13.95;;;;;;;5.07;72.48;99841.19;5087481;28;20058;-72
2023/04/09 06:24:07;;;;;;;15.20;13.10;;;;;;;5.07;72.57;99842.03;5087369;28;20052;-72
2023/04/09 06:26:34;;;;;;;16.15;13.18;;;;;;;5.09;72.75;99839.38;5086962;28;20040;-72
2023/04/09 06:29:01;;;;;;;15.30;13.05;;;;;;;5.09;72.76;99840.25;5086819;28;20044;-71
2023/04/09 06:31:28;;;;;;;15.80;12.95;;;;;;;5.11;72.83;99837.59;5087095;28;20075;-72
2023/04/09 06:33:55;;;;;;;15.40;12.68;;;;;;;4.99;72.83;99822.13;5087346;28;20062;-72
2023/04/09 06:36:21;;;;;;;15.88;13.23;;;;;;;5.17;72.61;99850.56;5085887;28;20044;-72
2023/04/09 06:38:49;;;;;;;14.63;11.77;;;;;;;5.20;72.97;99850.47;5086601;28;20047;-72
2023/04/09 06:41:16;;;;;;;15.38;13.18;;;;;;;5.23;73.08;99846.91;5086542;28;20040;-72
2023/04/09 06:43:43;;;;;;;18.40;16.23;;;;;;;5.26;72.94;99844.22;5087352;28;20044;-72
2023/04/09 06:46:09;;;;;;;19.83;15.45;;;;;;;5.29;72.92;99852.88;5086464;28;20055;-72
2023/04/09 06:48:36;;;;;;;20.45;16.48;;;;;;;5.33;72.94;99844.00;5086721;28;20158;-72
2023/04/09 06:51:03;;;;;;;22.05;17.40;;;;;;;5.26;73.00;99823.19;5086715;28;20052;-72
2023/04/09 06:53:30;;;;;;;22.23;17.23;;;;;;;5.43;72.90;99842.00;5086643;28;20082;-71
2023/04/09 06:55:58;;;;;;;20.63;18.30;;;;;;;5.52;72.88;99848.78;5086323;28;20032;-72
2023/04/09 06:58:25;;;;;;;19.75;16.30;;;;;;;5.59;73.05;99850.34;5086421;28;20238;-72
2023/04/09 07:00:51;;;;;;;20.88;16.63;;;;;;;5.64;72.55;99851.94;5085388;28;20047;-72
2023/04/09 07:03:18;;;;;;;22.63;18.65;;;;;;;5.52;72.52;99825.13;5086371;28;20040;-71
2023/04/09 07:05:46;;;;;;;20.02;16.60;;;;;;;5.74;72.50;99857.81;5086744;28;20350;-72
2023/04/09 07:08:12;;;;;;;21.50;16.80;;;;;;;5.58;72.16;99822.31;5086397;28;20074;-72
2023/04/09 07:10:39;;;;;;;21.35;17.05;;;;;;;5.84;72.07;99861.06;5086499;28;20055;-72
2023/04/09 07:13:07;;;;;;;19.27;16.55;;;;;;;5.89;71.65;99862.66;5086266;28;20226;-71
2023/04/09 07:15:34;;;;;;;20.60;16.42;;;;;;;5.82;71.58;99826.91;5086032;28;20066;-72
2023/04/09 07:18:01;;;;;;;20.73;17.40;;;;;;;6.17;71.32;99867.13;5086319;28;20036;-72
2023/04/09 07:20:27;;;;;;;23.35;17.92;;;;;;;6.26;71.27;99866.84;5086189;28;20044;-72
2023/04/09 07:22:54;;;;;;;20.92;17.17;;;;;;;6.31;70.72;99864.94;5086385;28;20050;-72
2023/04/09 07:25:21;;;;;;;20.80;17.55;;;;;;;6.33;70.38;99863.13;5085898;28;20040;-72
2023/04/09 07:27:48;;;;;;;22.15;18.45;;;;;;;6.34;70.31;99865.72;5085533;28;20049;-72
2023/04/09 07:30:16;;;;;;;22.23;18.42;;;;;;;6.37;70.15;99870.88;5086182;28;20068;-72
2023/04/09 07:32:43;;;;;;;22.48;17.38;;;;;;;6.41;70.03;99866.41;5086318;28;20047;-71
2023/04/09 07:35:10;;;;;;;23.80;19.33;;;;;;;6.42;69.59;99863.72;5085609;28;20052;-72
2023/04/09 07:37:37;;;;;;;23.52;18.88;;;;;;;6.40;69.39;99869.94;5086029;28;20108;-72
2023/04/09 07:40:04;;;;;;;21.55;17.73;;;;;;;6.39;69.21;99870.84;5086164;28;20212;-72
2023/04/09 07:42:31;;;;;;;24.83;20.48;;;;;;;6.37;69.18;99876.16;5085478;28;20209;-72
2023/04/09 07:44:58;;;;;;;22.77;18.73;;;;;;;6.35;69.32;99872.72;5085631;28;20301;-72
2023/04/09 07:47:27;;;;;;;24.35;19.88;;;;;;;6.36;69.24;99873.56;5085625;28;20032;-72
2023/04/09 07:49:54;;;;;;;23.52;19.45;;;;;;;6.35;69.72;99877.09;5085965;28;20040;-72
2023/04/09 07:52:20;;;;;;;25.00;20.38;;;;;;;6.36;69.77;99876.19;5085362;28;20055;-72
2023/04/09 07:54:47;;;;;;;25.80;19.65;;;;;;;6.38;69.34;99871.75;5085931;28;20094;-72
2023/04/09 07:57:14;;;;;;;21.60;18.10;;;;;;;6.39;69.25;99874.34;5085962;28;20044;-71
2023/04/09 07:59:40;;;;;;;22.50;18.65;;;;;;;6.42;69.27;99878.66;5085004;28;20292;-72
2023/04/09 08:02:07;;;;;;;24.40;20.05;;;;;;;6.43;69.17;99883.00;5085535;28;20048;-72
2023/04/09 08:04:36;;;;;;;22.85;19.75;;;;;;;6.39;69.15;99879.59;5085454;28;20068;-72
2023/04/09 08:07:02;;;;;;;23.48;18.55;;;;;;;6.46;68.96;99884.69;5085640;28;20102;-71
2023/04/09 08:09:29;;;;;;;21.98;18.83;;;;;;;6.46;69.12;99887.31;5085687;28;20033;-72
2023/04/09 08:11:56;;;;;;;25.10;20.45;;;;;;;6.47;69.30;99892.53;5085189;28;20048;-72
2023/04/09 08:14:22;;;;;;;25.15;19.75;;;;;;;6.49;69.69;99895.13;5089544;28;20050;-72
2023/04/09 08:16:49;;;;;;;20.50;16.85;;;;;;;6.52;69.86;99890.63;5089443;28;20204;-72
2023/04/09 08:19:17;;;;;;;21.77;19.25;;;;;;;6.54;69.84;99894.09;5089860;28;20052;-72
2023/04/09 08:21:47;;;;;;;21.88;17.92;;;;;;;6.55;69.80;99887.91;5089522;28;20123;-72
2023/04/09 08:24:14;;;;;;;21.95;18.52;;;;;;;6.56;69.68;99894.91;5089478;28;20231;-72
2023/04/09 08:26:42;;;;;;;22.83;19.17;;;;;;;6.57;69.42;99882.59;5089238;28;20032;-72
2023/04/09 08:29:10;;;;;;;22.17;18.63;;;;;;;6.58;69.31;99885.19;5089092;28;20049;-72
2023/04/09 08:31:37;;;;;;;23.10;18.92;;;;;;;6.59;69.20;99889.53;5089171;28;20044;-72
2023/04/09 08:34:03;;;;;;;21.08;17.70;;;;;;;6.65;69.29;99894.63;5089215;28;20064;-72
2023/04/09 08:36:31;;;;;;;23.40;19.35;;;;;;;6.61;69.48;99881.59;5089427;28;20079;-72
2023/04/09 08:38:59;;;;;;;25.10;20.52;;;;;;;6.81;69.53;99897.69;5089210;28;20032;-72
2023/04/09 08:41:28;;;;;;;24.17;19.33;;;;;;;6.83;69.10;99895.00;5088667;28;20032;-72
2023/04/09 08:43:56;;;;;;;26.48;20.67;;;;;;;6.86;68.99;99897.53;5089101;28;20350;-72
2023/04/09 08:46:23;;;;;;;22.88;19.27;;;;;;;6.88;68.81;99898.34;5088806;28;20108;-72
2023/04/09 08:48:51;;;;;;;23.98;20.13;;;;;;;6.79;68.32;99878.38;5088724;28;20090;-72
2023/04/09 08:51:19;;;;;;;20.10;17.92;;;;;;;6.91;68.25;99903.50;5088975;28;20044;-72
2023/04/09 08:53:46;;;;;;;20.58;16.80;;;;;;;6.93;67.97;99901.69;5089238;28;20051;-72
2023/04/09 08:56:14;;;;;;;23.10;18.20;;;;;;;6.94;67.92;99904.28;5088947;28;20064;-72
2023/04/09 08:58:44;;;;;;;22.17;17.73;;;;;;;6.95;67.87;99903.38;5088920;28;20285;-72
2023/04/09 09:01:21;;;;;;;21.90;18.30;;;;;;;6.98;67.70;99905.03;5088549;28;20368;-72
2023/04/09 09:04:02;;;;;;;23.08;18.60;;;;;;;6.98;68.22;99908.53;5089045;28;20064;-72
2023/04/09 09:06:31;;;;;;;23.02;19.27;;;;;;;6.92;68.37;99897.34;5088802;28;20036;-72
2023/04/09 09:09:06;;;;;;;20.85;17.55;;;;;;;7.00;68.05;99908.50;5088948;28;20052;-72
2023/04/09 09:11:35;;;;;;;15.95;14.15;;;;;;;6.89;68.08;99885.13;5088766;28;20070;-72
2023/04/09 09:14:04;;;;;;;15.77;13.73;;;;;;;7.06;67.55;99908.31;5088664;28;20303;-72
2023/04/09 09:16:32;;;;;;;15.40;13.60;;;;;;;7.08;67.29;99911.75;5088485;28;20044;-72
2023/04/09 09:18:59;;;;;;;18.08;15.52;;;;;;;7.13;67.29;99903.69;5088569;28;20036;-72
2023/04/09 09:21:28;;;;;;;17.92;14.55;;;;;;;7.15;67.00;99907.13;5088428;28;20063;-72
2023/04/09 09:23:56;;;;;;;13.93;12.38;;;;;;;6.49;66.93;99784.53;5087689;28;20063;-71
2023/04/09 09:26:24;;;;;;;14.98;12.60;;;;;;;6.04;66.72;99714.84;5087962;28;20036;-72
2023/04/09 09:28:53;;;;;;;16.52;13.60;;;;;;;7.21;66.83;99910.44;5088397;28;20048;-72
2023/04/09 09:31:21;;;;;;;13.57;11.43;;;;;;;6.95;67.00;99860.34;5088334;28;20307;-72
2023/04/09 09:33:49;;;;;;;14.57;11.93;;;;;;;7.32;66.88;99912.72;5088418;28;20090;-72
2023/04/09 09:36:30;;;;;;;14.02;11.52;;;;;;;7.32;66.83;99904.81;5088293;28;20253;-72
2023/04/09 09:39:01;;;;;;;14.98;12.30;;;;;;;6.37;66.47;99725.22;5088096;28;20040;-72
2023/04/09 09:41:28;;;;;;;13.65;11.38;;;;;;;7.49;66.48;99906.91;5087764;28;20119;-73
2023/04/09 09:43:56;;;;;;;14.88;12.43;;;;;;;7.55;66.35;99902.28;5088081;28;20284;-73
2023/04/09 09:46:25;;;;;;;13.85;12.38;;;;;;;7.62;66.27;99903.81;5087671;28;20048;-73
2023/04/09 09:48:51;;;;;;;14.25;11.95;;;;;;;7.69;65.95;99904.47;5088301;28;20048;-73
2023/04/09 09:51:19;;;;;;;14.32;11.95;;;;;;;7.76;65.50;99905.97;5088067;28;20044;-73
2023/04/09 09:53:51;;;;;;;15.50;13.02;;;;;;;7.86;65.25;99902.09;5087407;28;20115;-73
2023/04/09 09:56:21;;;;;;;14.52;11.93;;;;;;;5.97;65.23;99573.03;5087615;28;20227;-73
2023/04/09 09:58:56;;;;;;;15.05;12.50;;;;;;;7.10;64.92;99714.03;5087852;28;20281;-73
2023/04/09 10:01:27;;;;;;;13.50;12.10;;;;;;;8.25;64.60;99896.28;5087675;28;20040;-73
2023/04/09 10:03:58;;;;;;;14.90;12.38;;;;;;;8.39;64.70;99890.50;5087962;28;20044;-73
2023/04/09 10:06:26;;;;;;;14.18;12.68;;;;;;;7.36;63.83;99700.78;5087491;28;20048;-73
2023/04/09 10:08:57;;;;;;;15.73;13.20;;;;;;;8.62;63.21;99899.25;5087349;28;20247;-73
2023/04/09 10:11:24;;;;;;;14.85;12.60;;;;;;;8.72;62.89;99889.19;5087590;28;20071;-72
2023/04/09 10:13:56;;;;;;;16.38;14.35;;;;;;;8.85;62.41;99885.16;5087539;28;20310;-72
2023/04/09 10:16:25;;;;;;;16.27;13.95;;;;;;;8.81;62.65;99850.97;5087111;28;20048;-73
2023/04/09 10:18:53;;;;;;;17.73;14.75;;;;;;;8.94;62.31;99862.78;5087256;28;20095;-72
2023/04/09 10:21:30;;;;;;;18.50;16.52;;;;;;;9.11;60.87;99877.94;5087314;28;20044;-72
2023/04/09 10:23:58;;;;;;;17.50;14.48;;;;;;;9.19;61.98;99876.72;5087202;28;20086;-73
2023/04/09 10:26:27;;;;;;;17.33;15.20;;;;;;;9.27;61.81;99873.78;5087473;28;20050;-72
2023/04/09 10:29:06;;;;;;;18.00;15.25;;;;;;;9.38;59.91;99866.25;5086960;28;20195;-72
2023/04/09 10:31:49;;;;;;;17.05;14.23;;;;;;;9.48;59.08;99869.41;5086843;28;20098;-74
2023/04/09 10:34:17;;;;;;;16.38;13.95;;;;;;;9.07;60.79;99776.75;5086623;28;20036;-73
2023/04/09 10:36:44;;;;;;;16.83;14.55;;;;;;;9.75;60.29;99868.22;5086866;28;20051;-73
2023/04/09 10:39:12;;;;;;;18.17;14.90;;;;;;;9.85;59.66;99866.88;5086860;28;20089;-73
2023/04/09 10:41:40;;;;;;;15.43;13.15;;;;;;;9.87;59.45;99858.88;5086726;28;20082;-73
2023/04/09 10:44:19;;;;;;;15.80;13.52;;;;;;;9.04;58.10;99712.56;5086633;28;20330;-72
2023/04/09 10:46:47;;;;;;;15.63;13.15;;;;;;;9.81;58.25;99853.84;5086838;28;20046;-72
2023/04/09 10:49:16;;;;;;;15.07;13.00;;;;;;;9.90;58.42;99850.81;5086749;28;20289;-72
2023/04/09 10:51:49;;;;;;;15.35;12.68;;;;;;;10.04;57.32;99859.00;5086726;28;20243;-72
2023/04/09 10:54:44;;;;;;;16.58;14.57;;;;;;;10.19;55.71;99849.50;5086780;28;20193;-72
2023/04/09 10:57:16;;;;;;;15.32;13.73;;;;;;;10.25;57.06;99851.84;5086721;28;20293;-72
2023/04/09 10:59:44;;;;;;;16.55;14.18;;;;;;;10.32;57.70;99848.00;5086570;28;20099;-72
2023/04/09 11:02:38;;;;;;;15.57;12.98;;;;;;;10.37;55.48;99845.13;5086390;28;20090;-72
2023/04/09 11:05:31;;;;;;;17.20;14.90;;;;;;;10.21;55.72;99803.47;5086340;28;20208;-73
2023/04/09 11:08:04;;;;;;;16.05;14.20;;;;;;;10.27;55.66;99813.75;5086831;28;20056;-72
2023/04/09 11:10:31;;;;;;;15.70;13.40;;;;;;;10.53;56.87;99843.47;5086691;28;20040;-73
2023/04/09 11:12:57;;;;;;;16.63;13.82;;;;;;;10.27;56.27;99789.91;5085182;28;20040;-73
2023/04/09 11:15:24;;;;;;;15.05;12.65;;;;;;;10.46;56.06;99812.91;5086096;28;20103;-73
2023/04/09 11:17:53;;;;;;;16.40;13.73;;;;;;;10.58;55.65;99842.34;5085144;28;20094;-73
2023/04/09 11:20:21;;;;;;;16.73;14.93;;;;;;;10.54;55.76;99838.09;5085926;28;20039;-73
2023/04/09 11:22:49;;;;;;;17.98;15.35;;;;;;;10.49;56.19;99833.97;5085957;28;20033;-73
2023/04/09 11:25:24;;;;;;;20.13;15.93;;;;;;;10.41;54.80;99828.16;5086535;28;20111;-73
2023/04/09 11:27:51;;;;;;;19.67;17.13;;;;;;;10.18;56.85;99800.94;5085954;28;20040;-73
2023/04/09 11:30:18;;;;;;;20.33;16.73;;;;;;;9.99;56.92;99768.31;5086396;28;20046;-73